^^
Station Historical Data
Daily Summary for March 28, 2017 Units:  Both    English   Metric
« Previous Day
Next Day »
Daily Weekly Monthly Yearly Custom
  High: Low: Average:
Temperature: 86.0 °F /  30 °C 58.8 °F /  14.9 °C 70.2 °F /  21.2 °C
Dew Point: 58.1 °F /  14.5 °C 52.3 °F /  11.3 °C 54.8 °F /  12.7 °C
Humidity: 82% 33% 60%
Wind Speed: 6.9mph /  11.1km/h - 0.6mph /  1km/h
Wind Gust: 11.0mph /  17.7km/h - -
Wind- - SSE
Pressure: 29.92 in /  1013.1 hPa 29.81 in /  1009.4 hPa -
Precipitation: 0.00 in /  0 mm    
Historical Graphs
 
 
Tabular Data for March 28, 2017
Time Temperature Dew Point Pressure Wind Wind Speed Wind Gust Humidity Rainfall Rate (Hourly) solar Conditions
00:02 64.6 °F /  18.1 °C 52.9 °F /  11.6 °C 29.91in /  1012.8hPa Calm   1.0mph /  1.6km/h 66% 0.00in /  0mm 0.0 W/m2
00:08 64.4 °F /  18 °C 52.9 °F /  11.6 °C 29.91in /  1012.8hPa Calm     66% 0.00in /  0mm 0.0 W/m2
00:14 64.2 °F /  17.9 °C 53.1 °F /  11.7 °C 29.91in /  1012.8hPa Calm     67% 0.00in /  0mm 0.0 W/m2
00:20 64.2 °F /  17.9 °C 53.1 °F /  11.7 °C 29.91in /  1012.8hPa Calm   5.0mph /  8km/h 67% 0.00in /  0mm 0.0 W/m2
00:26 64.2 °F /  17.9 °C 53.1 °F /  11.7 °C 29.91in /  1012.8hPa Calm     67% 0.00in /  0mm 0.0 W/m2
00:33 64.2 °F /  17.9 °C 53.4 °F /  11.9 °C 29.91in /  1012.8hPa Calm   1.0mph /  1.6km/h 68% 0.00in /  0mm 0.0 W/m2
00:38 64.2 °F /  17.9 °C 53.4 °F /  11.9 °C 29.91in /  1012.8hPa Calm     68% 0.00in /  0mm 0.0 W/m2
00:44 64.2 °F /  17.9 °C 53.4 °F /  11.9 °C 29.91in /  1012.8hPa Calm     68% 0.00in /  0mm 0.0 W/m2
00:50 64.2 °F /  17.9 °C 53.4 °F /  11.9 °C 29.91in /  1012.8hPa Calm     68% 0.00in /  0mm 0.0 W/m2
00:57 64.0 °F /  17.8 °C 53.6 °F /  12 °C 29.91in /  1012.8hPa Calm     69% 0.00in /  0mm 0.0 W/m2
01:03 63.9 °F /  17.7 °C 53.4 °F /  11.9 °C 29.91in /  1012.8hPa Calm   2.0mph /  3.2km/h 69% 0.00in /  0mm 0.0 W/m2
01:09 63.7 °F /  17.6 °C 53.2 °F /  11.8 °C 29.91in /  1012.8hPa Calm   3.0mph /  4.8km/h 69% 0.00in /  0mm 0.0 W/m2
01:15 63.3 °F /  17.4 °C 53.4 °F /  11.9 °C 29.91in /  1012.8hPa Calm   3.0mph /  4.8km/h 70% 0.00in /  0mm 0.0 W/m2
01:21 63.1 °F /  17.3 °C 53.2 °F /  11.8 °C 29.91in /  1012.8hPa Calm   3.0mph /  4.8km/h 70% 0.00in /  0mm 0.0 W/m2
01:28 63.0 °F /  17.2 °C 53.1 °F /  11.7 °C 29.91in /  1012.8hPa Calm   3.0mph /  4.8km/h 70% 0.00in /  0mm 0.0 W/m2
01:33 62.6 °F /  17 °C 53.1 °F /  11.7 °C 29.91in /  1012.8hPa Calm   3.0mph /  4.8km/h 71% 0.00in /  0mm 0.0 W/m2
01:39 62.4 °F /  16.9 °C 52.9 °F /  11.6 °C 29.91in /  1012.8hPa East 0.9mph /  1.4km/h 2.0mph /  3.2km/h 71% 0.00in /  0mm 0.0 W/m2
01:45 62.4 °F /  16.9 °C 52.9 °F /  11.6 °C 29.90in /  1012.4hPa Calm   2.0mph /  3.2km/h 71% 0.00in /  0mm 0.0 W/m2
01:51 62.4 °F /  16.9 °C 52.9 °F /  11.6 °C 29.90in /  1012.4hPa NE 2.9mph /  4.7km/h 3.0mph /  4.8km/h 71% 0.00in /  0mm 0.0 W/m2
01:57 62.4 °F /  16.9 °C 52.9 °F /  11.6 °C 29.90in /  1012.4hPa ENE 0.9mph /  1.4km/h 4.0mph /  6.4km/h 71% 0.00in /  0mm 0.0 W/m2
02:03 62.4 °F /  16.9 °C 52.9 °F /  11.6 °C 29.90in /  1012.4hPa East 2.0mph /  3.2km/h 2.0mph /  3.2km/h 71% 0.00in /  0mm 0.0 W/m2
02:09 62.4 °F /  16.9 °C 52.9 °F /  11.6 °C 29.90in /  1012.4hPa Calm   2.0mph /  3.2km/h 71% 0.00in /  0mm 0.0 W/m2
02:15 62.4 °F /  16.9 °C 52.5 °F /  11.4 °C 29.90in /  1012.4hPa Calm   2.0mph /  3.2km/h 70% 0.00in /  0mm 0.0 W/m2
02:21 62.2 °F /  16.8 °C 52.3 °F /  11.3 °C 29.90in /  1012.4hPa Calm   2.0mph /  3.2km/h 70% 0.00in /  0mm 0.0 W/m2
02:28 62.2 °F /  16.8 °C 52.7 °F /  11.5 °C 29.90in /  1012.4hPa Calm     71% 0.00in /  0mm 0.0 W/m2
02:34 62.2 °F /  16.8 °C 52.7 °F /  11.5 °C 29.90in /  1012.4hPa Calm     71% 0.00in /  0mm 0.0 W/m2
02:40 62.1 °F /  16.7 °C 52.5 °F /  11.4 °C 29.90in /  1012.4hPa Calm     71% 0.00in /  0mm 0.0 W/m2
02:46 61.9 °F /  16.6 °C 52.7 °F /  11.5 °C 29.90in /  1012.4hPa Calm     72% 0.00in /  0mm 0.0 W/m2
02:52 61.9 °F /  16.6 °C 52.7 °F /  11.5 °C 29.90in /  1012.4hPa Calm     72% 0.00in /  0mm 0.0 W/m2
02:58 61.5 °F /  16.4 °C 52.3 °F /  11.3 °C 29.90in /  1012.4hPa Calm   2.0mph /  3.2km/h 72% 0.00in /  0mm 0.0 W/m2
03:04 61.5 °F /  16.4 °C 52.3 °F /  11.3 °C 29.90in /  1012.4hPa Calm   2.0mph /  3.2km/h 72% 0.00in /  0mm 0.0 W/m2
03:10 61.5 °F /  16.4 °C 52.3 °F /  11.3 °C 29.90in /  1012.4hPa SSW 0.9mph /  1.4km/h 3.0mph /  4.8km/h 72% 0.00in /  0mm 0.0 W/m2
03:16 61.5 °F /  16.4 °C 52.7 °F /  11.5 °C 29.90in /  1012.4hPa Calm   1.0mph /  1.6km/h 73% 0.00in /  0mm 0.0 W/m2
03:22 61.3 °F /  16.3 °C 52.7 °F /  11.5 °C 29.90in /  1012.4hPa Calm     73% 0.00in /  0mm 0.0 W/m2
03:28 61.3 °F /  16.3 °C 52.7 °F /  11.5 °C 29.89in /  1012.1hPa Calm     73% 0.00in /  0mm 0.0 W/m2
03:34 61.2 °F /  16.2 °C 52.5 °F /  11.4 °C 29.89in /  1012.1hPa Calm     73% 0.00in /  0mm 0.0 W/m2
03:40 61.2 °F /  16.2 °C 52.9 °F /  11.6 °C 29.89in /  1012.1hPa East 0.9mph /  1.4km/h 3.0mph /  4.8km/h 74% 0.00in /  0mm 0.0 W/m2
03:46 61.2 °F /  16.2 °C 52.9 °F /  11.6 °C 29.89in /  1012.1hPa Calm   3.0mph /  4.8km/h 74% 0.00in /  0mm 0.0 W/m2
03:52 61.0 °F /  16.1 °C 52.7 °F /  11.5 °C 29.89in /  1012.1hPa East 0.9mph /  1.4km/h 2.0mph /  3.2km/h 74% 0.00in /  0mm 0.0 W/m2
03:58 61.0 °F /  16.1 °C 52.7 °F /  11.5 °C 29.89in /  1012.1hPa SSE 0.9mph /  1.4km/h 1.0mph /  1.6km/h 74% 0.00in /  0mm 0.0 W/m2
04:04 61.0 °F /  16.1 °C 52.7 °F /  11.5 °C 29.89in /  1012.1hPa Calm   2.0mph /  3.2km/h 74% 0.00in /  0mm 0.0 W/m2
04:10 61.0 °F /  16.1 °C 53.1 °F /  11.7 °C 29.89in /  1012.1hPa Calm     75% 0.00in /  0mm 0.0 W/m2
04:16 61.0 °F /  16.1 °C 53.1 °F /  11.7 °C 29.89in /  1012.1hPa Calm     75% 0.00in /  0mm 0.0 W/m2
04:22 61.0 °F /  16.1 °C 53.1 °F /  11.7 °C 29.88in /  1011.7hPa Calm     75% 0.00in /  0mm 0.0 W/m2
04:28 61.0 °F /  16.1 °C 53.1 °F /  11.7 °C 29.88in /  1011.7hPa Calm     75% 0.00in /  0mm 0.0 W/m2
04:34 61.0 °F /  16.1 °C 53.1 °F /  11.7 °C 29.88in /  1011.7hPa Calm   1.0mph /  1.6km/h 75% 0.00in /  0mm 0.0 W/m2
04:40 60.8 °F /  16 °C 52.9 °F /  11.6 °C 29.88in /  1011.7hPa Calm   1.0mph /  1.6km/h 75% 0.00in /  0mm 0.0 W/m2
04:46 60.8 °F /  16 °C 52.9 °F /  11.6 °C 29.88in /  1011.7hPa Calm   2.0mph /  3.2km/h 75% 0.00in /  0mm 0.0 W/m2
04:52 60.6 °F /  15.9 °C 52.7 °F /  11.5 °C 29.88in /  1011.7hPa Calm   2.0mph /  3.2km/h 75% 0.00in /  0mm 0.0 W/m2
04:58 60.6 °F /  15.9 °C 53.1 °F /  11.7 °C 29.88in /  1011.7hPa Calm     76% 0.00in /  0mm 0.0 W/m2
05:04 60.4 °F /  15.8 °C 52.9 °F /  11.6 °C 29.88in /  1011.7hPa Calm     76% 0.00in /  0mm 0.0 W/m2
05:10 60.4 °F /  15.8 °C 52.9 °F /  11.6 °C 29.88in /  1011.7hPa Calm     76% 0.00in /  0mm 0.0 W/m2
05:16 60.3 °F /  15.7 °C 52.7 °F /  11.5 °C 29.88in /  1011.7hPa Calm   1.0mph /  1.6km/h 76% 0.00in /  0mm 0.0 W/m2
05:22 60.1 °F /  15.6 °C 52.9 °F /  11.6 °C 29.88in /  1011.7hPa Calm   1.0mph /  1.6km/h 77% 0.00in /  0mm 0.0 W/m2
05:28 60.1 °F /  15.6 °C 52.9 °F /  11.6 °C 29.88in /  1011.7hPa Calm   2.0mph /  3.2km/h 77% 0.00in /  0mm 0.0 W/m2
05:34 59.7 °F /  15.4 °C 52.9 °F /  11.6 °C 29.88in /  1011.7hPa Calm   1.0mph /  1.6km/h 78% 0.00in /  0mm 0.0 W/m2
05:40 59.5 °F /  15.3 °C 52.7 °F /  11.5 °C 29.88in /  1011.7hPa Calm   2.0mph /  3.2km/h 78% 0.00in /  0mm 0.0 W/m2
05:46 59.5 °F /  15.3 °C 53.1 °F /  11.7 °C 29.89in /  1012.1hPa Calm   4.0mph /  6.4km/h 79% 0.00in /  0mm 0.0 W/m2
05:52 59.5 °F /  15.3 °C 53.1 °F /  11.7 °C 29.89in /  1012.1hPa ESE 0.9mph /  1.4km/h 3.0mph /  4.8km/h 79% 0.00in /  0mm 0.0 W/m2
05:58 59.5 °F /  15.3 °C 53.1 °F /  11.7 °C 29.89in /  1012.1hPa Calm   1.0mph /  1.6km/h 79% 0.00in /  0mm 0.0 W/m2
06:04 59.5 °F /  15.3 °C 53.1 °F /  11.7 °C 29.89in /  1012.1hPa Calm   1.0mph /  1.6km/h 79% 0.00in /  0mm 0.0 W/m2
06:10 59.4 °F /  15.2 °C 52.9 °F /  11.6 °C 29.89in /  1012.1hPa Calm   2.0mph /  3.2km/h 79% 0.00in /  0mm 0.0 W/m2
06:16 59.4 °F /  15.2 °C 52.9 °F /  11.6 °C 29.89in /  1012.1hPa Calm     79% 0.00in /  0mm 0.0 W/m2
06:22 59.4 °F /  15.2 °C 53.2 °F /  11.8 °C 29.89in /  1012.1hPa Calm   3.0mph /  4.8km/h 80% 0.00in /  0mm 0.0 W/m2
06:28 59.2 °F /  15.1 °C 52.7 °F /  11.5 °C 29.90in /  1012.4hPa East 0.9mph /  1.4km/h 2.0mph /  3.2km/h 79% 0.00in /  0mm 0.0 W/m2
06:36 59.2 °F /  15.1 °C 53.1 °F /  11.7 °C 29.90in /  1012.4hPa Calm   1.0mph /  1.6km/h 80% 0.00in /  0mm 0.0 W/m2
06:42 59.2 °F /  15.1 °C 53.1 °F /  11.7 °C 29.90in /  1012.4hPa Calm   2.0mph /  3.2km/h 80% 0.00in /  0mm 0.0 W/m2
06:48 59.2 °F /  15.1 °C 53.1 °F /  11.7 °C 29.90in /  1012.4hPa Calm   2.0mph /  3.2km/h 80% 0.00in /  0mm 0.0 W/m2
06:55 59.0 °F /  15 °C 52.9 °F /  11.6 °C 29.90in /  1012.4hPa Calm   1.0mph /  1.6km/h 80% 0.00in /  0mm 0.0 W/m2
07:01 59.0 °F /  15 °C 52.9 °F /  11.6 °C 29.90in /  1012.4hPa Calm     80% 0.00in /  0mm 0.0 W/m2
07:07 58.8 °F /  14.9 °C 53.1 °F /  11.7 °C 29.90in /  1012.4hPa SE 2.0mph /  3.2km/h 3.0mph /  4.8km/h 81% 0.00in /  0mm 7.0 W/m2
07:12 58.8 °F /  14.9 °C 53.1 °F /  11.7 °C 29.90in /  1012.4hPa SE 0.9mph /  1.4km/h 3.0mph /  4.8km/h 81% 0.00in /  0mm 11.0 W/m2
07:18 58.8 °F /  14.9 °C 53.1 °F /  11.7 °C 29.90in /  1012.4hPa East 0.9mph /  1.4km/h 3.0mph /  4.8km/h 81% 0.00in /  0mm 12.0 W/m2
07:24 58.8 °F /  14.9 °C 53.1 °F /  11.7 °C 29.90in /  1012.4hPa Calm   1.0mph /  1.6km/h 81% 0.00in /  0mm 14.0 W/m2
07:31 58.8 °F /  14.9 °C 53.1 °F /  11.7 °C 29.90in /  1012.4hPa Calm   1.0mph /  1.6km/h 81% 0.00in /  0mm 18.0 W/m2
07:43 59.2 °F /  15.1 °C 53.6 °F /  12 °C 29.91in /  1012.8hPa SE 0.9mph /  1.4km/h 3.0mph /  4.8km/h 82% 0.00in /  0mm 21.0 W/m2
07:49 59.4 °F /  15.2 °C 53.6 °F /  12 °C 29.91in /  1012.8hPa Calm   1.0mph /  1.6km/h 81% 0.00in /  0mm 23.0 W/m2
07:55 59.7 °F /  15.4 °C 54.0 °F /  12.2 °C 29.91in /  1012.8hPa Calm   1.0mph /  1.6km/h 81% 0.00in /  0mm 25.0 W/m2
08:01 60.1 °F /  15.6 °C 54.5 °F /  12.5 °C 29.91in /  1012.8hPa Calm   1.0mph /  1.6km/h 82% 0.00in /  0mm 26.0 W/m2
08:07 60.4 °F /  15.8 °C 54.5 °F /  12.5 °C 29.91in /  1012.8hPa Calm   2.0mph /  3.2km/h 81% 0.00in /  0mm 28.0 W/m2
08:13 61.0 °F /  16.1 °C 55.0 °F /  12.8 °C 29.91in /  1012.8hPa ENE 0.9mph /  1.4km/h 1.0mph /  1.6km/h 81% 0.00in /  0mm 28.0 W/m2
08:19 61.5 °F /  16.4 °C 55.2 °F /  12.9 °C 29.92in /  1013.1hPa Calm   1.0mph /  1.6km/h 80% 0.00in /  0mm 30.0 W/m2
08:25 62.2 °F /  16.8 °C 55.6 °F /  13.1 °C 29.92in /  1013.1hPa NE 0.9mph /  1.4km/h 1.0mph /  1.6km/h 79% 0.00in /  0mm 32.0 W/m2
08:31 62.8 °F /  17.1 °C 56.1 °F /  13.4 °C 29.92in /  1013.1hPa Calm   1.0mph /  1.6km/h 79% 0.00in /  0mm 33.0 W/m2
08:39 64.0 °F /  17.8 °C 55.9 °F /  13.3 °C 29.92in /  1013.1hPa Calm     75% 0.00in /  0mm 33.0 W/m2
08:45 64.9 °F /  18.3 °C 56.1 °F /  13.4 °C 29.92in /  1013.1hPa Calm     73% 0.00in /  0mm 37.0 W/m2
08:51 65.7 °F /  18.7 °C 56.8 °F /  13.8 °C 29.92in /  1013.1hPa Calm     73% 0.00in /  0mm 35.0 W/m2
08:57 66.7 °F /  19.3 °C 55.8 °F /  13.2 °C 29.92in /  1013.1hPa Calm   1.0mph /  1.6km/h 68% 0.00in /  0mm 37.0 W/m2
09:03 67.6 °F /  19.8 °C 55.9 °F /  13.3 °C 29.92in /  1013.1hPa SW 0.9mph /  1.4km/h 1.0mph /  1.6km/h 66% 0.00in /  0mm 40.0 W/m2
09:09 68.5 °F /  20.3 °C 56.3 °F /  13.5 °C 29.92in /  1013.1hPa Calm   1.0mph /  1.6km/h 65% 0.00in /  0mm 40.0 W/m2
09:15 69.3 °F /  20.7 °C 56.1 °F /  13.4 °C 29.92in /  1013.1hPa WSW 2.0mph /  3.2km/h 2.0mph /  3.2km/h 63% 0.00in /  0mm 39.0 W/m2
09:21 69.8 °F /  21 °C 55.8 °F /  13.2 °C 29.92in /  1013.1hPa WNW 0.9mph /  1.4km/h 1.0mph /  1.6km/h 61% 0.00in /  0mm 40.0 W/m2
09:27 70.3 °F /  21.3 °C 56.3 °F /  13.5 °C 29.92in /  1013.1hPa Calm   1.0mph /  1.6km/h 61% 0.00in /  0mm 40.0 W/m2
09:33 70.9 °F /  21.6 °C 56.3 °F /  13.5 °C 29.92in /  1013.1hPa Calm   2.0mph /  3.2km/h 60% 0.00in /  0mm 42.0 W/m2
09:39 71.2 °F /  21.8 °C 56.1 °F /  13.4 °C 29.92in /  1013.1hPa NNE 0.9mph /  1.4km/h 3.0mph /  4.8km/h 59% 0.00in /  0mm 44.0 W/m2
09:45 71.8 °F /  22.1 °C 56.7 °F /  13.7 °C 29.92in /  1013.1hPa NNE 2.0mph /  3.2km/h 2.0mph /  3.2km/h 59% 0.00in /  0mm 60.0 W/m2
09:51 72.3 °F /  22.4 °C 56.7 °F /  13.7 °C 29.92in /  1013.1hPa Calm   3.0mph /  4.8km/h 58% 0.00in /  0mm 613.0 W/m2
09:57 73.2 °F /  22.9 °C 56.7 °F /  13.7 °C 29.92in /  1013.1hPa Calm   1.0mph /  1.6km/h 56% 0.00in /  0mm 629.0 W/m2
10:03 74.5 °F /  23.6 °C 57.2 °F /  14 °C 29.92in /  1013.1hPa Calm   4.0mph /  6.4km/h 55% 0.00in /  0mm 647.0 W/m2
10:09 75.0 °F /  23.9 °C 56.7 °F /  13.7 °C 29.91in /  1012.8hPa West 0.9mph /  1.4km/h 2.0mph /  3.2km/h 53% 0.00in /  0mm 670.0 W/m2
10:15 75.7 °F /  24.3 °C 56.8 °F /  13.8 °C 29.91in /  1012.8hPa Calm   2.0mph /  3.2km/h 52% 0.00in /  0mm 686.0 W/m2
10:21 76.5 °F /  24.7 °C 56.5 °F /  13.6 °C 29.91in /  1012.8hPa West 0.9mph /  1.4km/h 3.0mph /  4.8km/h 50% 0.00in /  0mm 703.0 W/m2
10:27 76.8 °F /  24.9 °C 56.8 °F /  13.8 °C 29.92in /  1013.1hPa NNW 2.0mph /  3.2km/h 3.0mph /  4.8km/h 50% 0.00in /  0mm 710.0 W/m2
10:33 77.7 °F /  25.4 °C 56.5 °F /  13.6 °C 29.92in /  1013.1hPa Calm   1.0mph /  1.6km/h 48% 0.00in /  0mm 726.0 W/m2
10:39 78.4 °F /  25.8 °C 56.5 °F /  13.6 °C 29.91in /  1012.8hPa West 0.9mph /  1.4km/h 2.0mph /  3.2km/h 47% 0.00in /  0mm 737.0 W/m2
10:45 79.2 °F /  26.2 °C 57.2 °F /  14 °C 29.91in /  1012.8hPa Calm   4.0mph /  6.4km/h 47% 0.00in /  0mm 752.0 W/m2
10:51 79.7 °F /  26.5 °C 56.5 °F /  13.6 °C 29.91in /  1012.8hPa NW 4.0mph /  6.4km/h 5.0mph /  8km/h 45% 0.00in /  0mm 772.0 W/m2
10:57 80.1 °F /  26.7 °C 56.8 °F /  13.8 °C 29.92in /  1013.1hPa North 2.0mph /  3.2km/h 5.0mph /  8km/h 45% 0.00in /  0mm 788.0 W/m2
11:03 79.9 °F /  26.6 °C 56.7 °F /  13.7 °C 29.91in /  1012.8hPa NW 2.0mph /  3.2km/h 7.0mph /  11.3km/h 45% 0.00in /  0mm 789.0 W/m2
11:15 80.8 °F /  27.1 °C 58.1 °F /  14.5 °C 29.91in /  1012.8hPa Calm   5.0mph /  8km/h 46% 0.00in /  0mm 875.0 W/m2
11:21 81.1 °F /  27.3 °C 57.2 °F /  14 °C 29.91in /  1012.8hPa Calm   4.0mph /  6.4km/h 44% 0.00in /  0mm 882.0 W/m2
11:27 81.9 °F /  27.7 °C 56.5 °F /  13.6 °C 29.91in /  1012.8hPa NW 6.9mph /  11.1km/h 7.0mph /  11.3km/h 42% 0.00in /  0mm 889.0 W/m2
11:33 82.0 °F /  27.8 °C 56.7 °F /  13.7 °C 29.90in /  1012.4hPa West 2.9mph /  4.7km/h 6.0mph /  9.7km/h 42% 0.00in /  0mm 904.0 W/m2
11:39 82.0 °F /  27.8 °C 55.4 °F /  13 °C 29.90in /  1012.4hPa Calm   5.0mph /  8km/h 40% 0.00in /  0mm 933.0 W/m2
11:45 82.4 °F /  28 °C 55.6 °F /  13.1 °C 29.90in /  1012.4hPa NNE 2.9mph /  4.7km/h 9.0mph /  14.5km/h 40% 0.00in /  0mm 983.0 W/m2
11:52 82.6 °F /  28.1 °C 55.8 °F /  13.2 °C 29.90in /  1012.4hPa Calm   3.0mph /  4.8km/h 40% 0.00in /  0mm 1005.0 W/m2
11:58 82.2 °F /  27.9 °C 56.1 °F /  13.4 °C 29.89in /  1012.1hPa West 0.9mph /  1.4km/h 5.0mph /  8km/h 41% 0.00in /  0mm 1055.0 W/m2
12:04 82.8 °F /  28.2 °C 56.7 °F /  13.7 °C 29.89in /  1012.1hPa Calm   3.0mph /  4.8km/h 41% 0.00in /  0mm 995.0 W/m2
12:10 83.8 °F /  28.8 °C 56.3 °F /  13.5 °C 29.89in /  1012.1hPa North 2.0mph /  3.2km/h 8.0mph /  12.9km/h 39% 0.00in /  0mm 1030.0 W/m2
12:16 84.2 °F /  29 °C 55.0 °F /  12.8 °C 29.89in /  1012.1hPa Calm   7.0mph /  11.3km/h 37% 0.00in /  0mm 1042.0 W/m2
12:22 84.2 °F /  29 °C 55.8 °F /  13.2 °C 29.88in /  1011.7hPa NNW 4.0mph /  6.4km/h 8.0mph /  12.9km/h 38% 0.00in /  0mm 1016.0 W/m2
12:28 84.4 °F /  29.1 °C 56.7 °F /  13.7 °C 29.88in /  1011.7hPa WSW 2.0mph /  3.2km/h 10.0mph /  16.1km/h 39% 0.00in /  0mm 1032.0 W/m2
12:34 84.6 °F /  29.2 °C 56.1 °F /  13.4 °C 29.88in /  1011.7hPa NNE 4.9mph /  7.9km/h 8.0mph /  12.9km/h 38% 0.00in /  0mm 1055.0 W/m2
12:40 84.6 °F /  29.2 °C 55.4 °F /  13 °C 29.87in /  1011.4hPa NE 2.0mph /  3.2km/h 11.0mph /  17.7km/h 37% 0.00in /  0mm 1092.0 W/m2
12:51 84.9 °F /  29.4 °C 55.8 °F /  13.2 °C 29.87in /  1011.4hPa NNW 4.0mph /  6.4km/h 7.0mph /  11.3km/h 37% 0.00in /  0mm 1081.0 W/m2
12:57 85.3 °F /  29.6 °C 54.5 °F /  12.5 °C 29.87in /  1011.4hPa NNW 4.0mph /  6.4km/h 5.0mph /  8km/h 35% 0.00in /  0mm 1129.0 W/m2
13:03 85.3 °F /  29.6 °C 55.2 °F /  12.9 °C 29.87in /  1011.4hPa NNE 2.0mph /  3.2km/h 8.0mph /  12.9km/h 36% 0.00in /  0mm 1118.0 W/m2
13:09 85.8 °F /  29.9 °C 53.4 °F /  11.9 °C 29.86in /  1011.1hPa NE 4.0mph /  6.4km/h 8.0mph /  12.9km/h 33% 0.00in /  0mm 1155.0 W/m2
13:15 86.0 °F /  30 °C 53.6 °F /  12 °C 29.86in /  1011.1hPa Calm   3.0mph /  4.8km/h 33% 0.00in /  0mm 323.0 W/m2
13:21 85.3 °F /  29.6 °C 55.2 °F /  12.9 °C 29.86in /  1011.1hPa SE 0.9mph /  1.4km/h 6.0mph /  9.7km/h 36% 0.00in /  0mm 345.0 W/m2
13:27 83.8 °F /  28.8 °C 54.9 °F /  12.7 °C 29.85in /  1010.7hPa WNW 2.9mph /  4.7km/h 10.0mph /  16.1km/h 37% 0.00in /  0mm 364.0 W/m2
13:33 84.0 °F /  28.9 °C 54.9 °F /  12.7 °C 29.85in /  1010.7hPa WNW 0.9mph /  1.4km/h 2.0mph /  3.2km/h 37% 0.00in /  0mm 1067.0 W/m2
13:39 83.8 °F /  28.8 °C 54.9 °F /  12.7 °C 29.85in /  1010.7hPa NNW 2.0mph /  3.2km/h 3.0mph /  4.8km/h 37% 0.00in /  0mm 220.0 W/m2
13:46 83.5 °F /  28.6 °C 53.8 °F /  12.1 °C 29.85in /  1010.7hPa Calm   3.0mph /  4.8km/h 36% 0.00in /  0mm 185.0 W/m2
13:52 82.2 °F /  27.9 °C 54.1 °F /  12.3 °C 29.85in /  1010.7hPa Calm   5.0mph /  8km/h 38% 0.00in /  0mm 163.0 W/m2
13:58 81.3 °F /  27.4 °C 54.0 °F /  12.2 °C 29.84in /  1010.4hPa WNW 0.9mph /  1.4km/h 1.0mph /  1.6km/h 39% 0.00in /  0mm 165.0 W/m2
14:04 81.0 °F /  27.2 °C 54.3 °F /  12.4 °C 29.84in /  1010.4hPa SW 2.9mph /  4.7km/h 6.0mph /  9.7km/h 40% 0.00in /  0mm 151.0 W/m2
14:10 80.2 °F /  26.8 °C 53.8 °F /  12.1 °C 29.85in /  1010.7hPa ESE 0.9mph /  1.4km/h 4.0mph /  6.4km/h 40% 0.00in /  0mm 190.0 W/m2
14:16 80.1 °F /  26.7 °C 53.6 °F /  12 °C 29.84in /  1010.4hPa Calm   5.0mph /  8km/h 40% 0.00in /  0mm 206.0 W/m2
14:22 80.1 °F /  26.7 °C 54.3 °F /  12.4 °C 29.84in /  1010.4hPa WSW 2.0mph /  3.2km/h 4.0mph /  6.4km/h 41% 0.00in /  0mm 232.0 W/m2
14:24 80.1 °F /  26.7 °C 54.3 °F /  12.4 °C 29.83in /  1010hPa Calm   2.0mph /  3.2km/h 41% 0.00in /  0mm 251.0 W/m2
14:31 80.4 °F /  26.9 °C 54.0 °F /  12.2 °C 29.83in /  1010hPa West 0.9mph /  1.4km/h 5.0mph /  8km/h 40% 0.00in /  0mm 939.0 W/m2
14:37 81.0 °F /  27.2 °C 55.0 °F /  12.8 °C 29.83in /  1010hPa NW 2.9mph /  4.7km/h 4.0mph /  6.4km/h 41% 0.00in /  0mm 156.0 W/m2
14:43 81.0 °F /  27.2 °C 53.6 °F /  12 °C 29.83in /  1010hPa North 2.0mph /  3.2km/h 2.0mph /  3.2km/h 39% 0.00in /  0mm 179.0 W/m2
14:49 81.0 °F /  27.2 °C 52.9 °F /  11.6 °C 29.83in /  1010hPa North 0.9mph /  1.4km/h 3.0mph /  4.8km/h 38% 0.00in /  0mm 148.0 W/m2
14:55 81.0 °F /  27.2 °C 52.9 °F /  11.6 °C 29.83in /  1010hPa Calm   5.0mph /  8km/h 38% 0.00in /  0mm 125.0 W/m2
14:59 81.0 °F /  27.2 °C 52.9 °F /  11.6 °C 29.83in /  1010hPa ENE 2.9mph /  4.7km/h 5.0mph /  8km/h 38% 0.00in /  0mm 100.0 W/m2
15:05 80.8 °F /  27.1 °C 53.6 °F /  12 °C 29.83in /  1010hPa Calm   3.0mph /  4.8km/h 39% 0.00in /  0mm 83.0 W/m2
15:11 80.6 °F /  27 °C 53.4 °F /  11.9 °C 29.82in /  1009.7hPa Calm   1.0mph /  1.6km/h 39% 0.00in /  0mm 81.0 W/m2
15:18 80.2 °F /  26.8 °C 54.3 °F /  12.4 °C 29.82in /  1009.7hPa Calm   1.0mph /  1.6km/h 41% 0.00in /  0mm 102.0 W/m2
15:24 80.1 °F /  26.7 °C 54.3 °F /  12.4 °C 29.82in /  1009.7hPa Calm     41% 0.00in /  0mm 130.0 W/m2
15:30 79.9 °F /  26.6 °C 55.4 °F /  13 °C 29.81in /  1009.4hPa East 0.9mph /  1.4km/h 1.0mph /  1.6km/h 43% 0.00in /  0mm 130.0 W/m2
15:36 79.5 °F /  26.4 °C 54.5 °F /  12.5 °C 29.82in /  1009.7hPa Calm   2.0mph /  3.2km/h 42% 0.00in /  0mm 51.0 W/m2
15:42 79.5 °F /  26.4 °C 53.8 °F /  12.1 °C 29.82in /  1009.7hPa NW 2.9mph /  4.7km/h 4.0mph /  6.4km/h 41% 0.00in /  0mm 42.0 W/m2
15:48 79.2 °F /  26.2 °C 54.7 °F /  12.6 °C 29.83in /  1010hPa Calm   7.0mph /  11.3km/h 43% 0.00in /  0mm 46.0 W/m2
15:54 78.6 °F /  25.9 °C 55.6 °F /  13.1 °C 29.83in /  1010hPa Calm   5.0mph /  8km/h 45% 0.00in /  0mm 47.0 W/m2
16:00 77.9 °F /  25.5 °C 55.4 °F /  13 °C 29.83in /  1010hPa West 2.0mph /  3.2km/h 4.0mph /  6.4km/h 46% 0.00in /  0mm 54.0 W/m2
16:06 77.2 °F /  25.1 °C 55.4 °F /  13 °C 29.83in /  1010hPa North 4.0mph /  6.4km/h 5.0mph /  8km/h 47% 0.00in /  0mm 74.0 W/m2
16:13 76.6 °F /  24.8 °C 55.4 °F /  13 °C 29.82in /  1009.7hPa Calm   3.0mph /  4.8km/h 48% 0.00in /  0mm 91.0 W/m2
16:19 76.5 °F /  24.7 °C 55.4 °F /  13 °C 29.83in /  1010hPa Calm   2.0mph /  3.2km/h 48% 0.00in /  0mm 97.0 W/m2
16:27 76.1 °F /  24.5 °C 55.6 °F /  13.1 °C 29.83in /  1010hPa Calm   2.0mph /  3.2km/h 49% 0.00in /  0mm 104.0 W/m2
16:33 75.9 °F /  24.4 °C 54.9 °F /  12.7 °C 29.83in /  1010hPa Calm     48% 0.00in /  0mm 105.0 W/m2
16:39 75.7 °F /  24.3 °C 55.2 °F /  12.9 °C 29.82in /  1009.7hPa Calm   1.0mph /  1.6km/h 49% 0.00in /  0mm 118.0 W/m2
16:45 75.7 °F /  24.3 °C 54.7 °F /  12.6 °C 29.83in /  1010hPa Calm   2.0mph /  3.2km/h 48% 0.00in /  0mm 135.0 W/m2
16:51 75.7 °F /  24.3 °C 54.1 °F /  12.3 °C 29.83in /  1010hPa South 2.0mph /  3.2km/h 2.0mph /  3.2km/h 47% 0.00in /  0mm 158.0 W/m2
16:58 75.9 °F /  24.4 °C 54.3 °F /  12.4 °C 29.83in /  1010hPa SW 3.0mph /  4.8km/h 3.0mph /  4.8km/h 47% 0.00in /  0mm 192.0 W/m2
17:04 76.5 °F /  24.7 °C 55.9 °F /  13.3 °C 29.83in /  1010hPa ESE 0.9mph /  1.4km/h 1.0mph /  1.6km/h 49% 0.00in /  0mm 230.0 W/m2
17:10 76.8 °F /  24.9 °C 54.5 °F /  12.5 °C 29.83in /  1010hPa SSE 0.9mph /  1.4km/h 1.0mph /  1.6km/h 46% 0.00in /  0mm 144.0 W/m2
17:16 77.2 °F /  25.1 °C 55.4 °F /  13 °C 29.83in /  1010hPa East 2.9mph /  4.7km/h 3.0mph /  4.8km/h 47% 0.00in /  0mm 116.0 W/m2
17:18 77.4 °F /  25.2 °C 55.0 °F /  12.8 °C 29.83in /  1010hPa Calm   3.0mph /  4.8km/h 46% 0.00in /  0mm 107.0 W/m2
17:24 77.4 °F /  25.2 °C 55.6 °F /  13.1 °C 29.83in /  1010hPa Calm   1.0mph /  1.6km/h 47% 0.00in /  0mm 77.0 W/m2
17:30 77.2 °F /  25.1 °C 55.4 °F /  13 °C 29.83in /  1010hPa NE 0.9mph /  1.4km/h 1.0mph /  1.6km/h 47% 0.00in /  0mm 60.0 W/m2
17:37 77.2 °F /  25.1 °C 55.9 °F /  13.3 °C 29.83in /  1010hPa Calm     48% 0.00in /  0mm 42.0 W/m2
17:43 77.0 °F /  25 °C 55.8 °F /  13.2 °C 29.83in /  1010hPa Calm     48% 0.00in /  0mm 42.0 W/m2
17:49 77.0 °F /  25 °C 55.8 °F /  13.2 °C 29.83in /  1010hPa Calm     48% 0.00in /  0mm 46.0 W/m2
17:55 76.8 °F /  24.9 °C 56.3 °F /  13.5 °C 29.84in /  1010.4hPa Calm     49% 0.00in /  0mm 47.0 W/m2
18:01 76.6 °F /  24.8 °C 56.1 °F /  13.4 °C 29.84in /  1010.4hPa Calm   1.0mph /  1.6km/h 49% 0.00in /  0mm 47.0 W/m2
18:07 76.5 °F /  24.7 °C 56.5 °F /  13.6 °C 29.84in /  1010.4hPa Calm   1.0mph /  1.6km/h 50% 0.00in /  0mm 42.0 W/m2
18:13 76.3 °F /  24.6 °C 56.3 °F /  13.5 °C 29.85in /  1010.7hPa North 0.9mph /  1.4km/h 3.0mph /  4.8km/h 50% 0.00in /  0mm 35.0 W/m2
18:20 75.9 °F /  24.4 °C 55.9 °F /  13.3 °C 29.84in /  1010.4hPa Calm   1.0mph /  1.6km/h 50% 0.00in /  0mm 28.0 W/m2
18:26 75.7 °F /  24.3 °C 57.4 °F /  14.1 °C 29.85in /  1010.7hPa Calm     53% 0.00in /  0mm 19.0 W/m2
18:32 75.6 °F /  24.2 °C 56.7 °F /  13.7 °C 29.85in /  1010.7hPa NNE 2.0mph /  3.2km/h 4.0mph /  6.4km/h 52% 0.00in /  0mm 14.0 W/m2
18:38 75.0 °F /  23.9 °C 56.1 °F /  13.4 °C 29.85in /  1010.7hPa NNE 0.9mph /  1.4km/h 2.0mph /  3.2km/h 52% 0.00in /  0mm 9.0 W/m2
18:44 74.8 °F /  23.8 °C 56.1 °F /  13.4 °C 29.85in /  1010.7hPa Calm     52% 0.00in /  0mm 5.0 W/m2
18:50 74.7 °F /  23.7 °C 56.5 °F /  13.6 °C 29.85in /  1010.7hPa Calm     53% 0.00in /  0mm 0.0 W/m2
18:56 74.3 °F /  23.5 °C 56.7 °F /  13.7 °C 29.85in /  1010.7hPa Calm     54% 0.00in /  0mm 0.0 W/m2
19:03 73.9 °F /  23.3 °C 56.8 °F /  13.8 °C 29.85in /  1010.7hPa Calm     55% 0.00in /  0mm 0.0 W/m2
19:09 73.8 °F /  23.2 °C 56.7 °F /  13.7 °C 29.85in /  1010.7hPa Calm     55% 0.00in /  0mm 0.0 W/m2
19:15 73.6 °F /  23.1 °C 56.8 °F /  13.8 °C 29.85in /  1010.7hPa Calm     56% 0.00in /  0mm 0.0 W/m2
19:23 73.0 °F /  22.8 °C 57.4 °F /  14.1 °C 29.86in /  1011.1hPa Calm   1.0mph /  1.6km/h 58% 0.00in /  0mm 0.0 W/m2
19:29 72.9 °F /  22.7 °C 57.2 °F /  14 °C 29.85in /  1010.7hPa Calm   1.0mph /  1.6km/h 58% 0.00in /  0mm 0.0 W/m2
19:36 72.7 °F /  22.6 °C 57.6 °F /  14.2 °C 29.85in /  1010.7hPa Calm     59% 0.00in /  0mm 0.0 W/m2
19:41 72.3 °F /  22.4 °C 57.7 °F /  14.3 °C 29.86in /  1011.1hPa Calm     60% 0.00in /  0mm 0.0 W/m2
19:47 72.0 °F /  22.2 °C 57.7 °F /  14.3 °C 29.86in /  1011.1hPa SSE 0.9mph /  1.4km/h 2.0mph /  3.2km/h 61% 0.00in /  0mm 0.0 W/m2
19:54 71.6 °F /  22 °C 57.4 °F /  14.1 °C 29.86in /  1011.1hPa Calm     61% 0.00in /  0mm 0.0 W/m2
20:00 71.2 °F /  21.8 °C 57.6 °F /  14.2 °C 29.86in /  1011.1hPa Calm   1.0mph /  1.6km/h 62% 0.00in /  0mm 0.0 W/m2
20:06 71.1 °F /  21.7 °C 57.4 °F /  14.1 °C 29.87in /  1011.4hPa Calm   2.0mph /  3.2km/h 62% 0.00in /  0mm 0.0 W/m2
20:12 70.9 °F /  21.6 °C 56.8 °F /  13.8 °C 29.87in /  1011.4hPa Calm   2.0mph /  3.2km/h 61% 0.00in /  0mm 0.0 W/m2
20:18 70.9 °F /  21.6 °C 56.8 °F /  13.8 °C 29.87in /  1011.4hPa Calm     61% 0.00in /  0mm 0.0 W/m2
20:25 70.9 °F /  21.6 °C 57.2 °F /  14 °C 29.88in /  1011.7hPa Calm     62% 0.00in /  0mm 0.0 W/m2
20:31 70.9 °F /  21.6 °C 57.2 °F /  14 °C 29.88in /  1011.7hPa Calm     62% 0.00in /  0mm 0.0 W/m2
20:37 70.5 °F /  21.4 °C 57.4 °F /  14.1 °C 29.88in /  1011.7hPa Calm     63% 0.00in /  0mm 0.0 W/m2
20:43 70.5 °F /  21.4 °C 57.4 °F /  14.1 °C 29.88in /  1011.7hPa Calm     63% 0.00in /  0mm 0.0 W/m2
20:49 70.3 °F /  21.3 °C 57.2 °F /  14 °C 29.88in /  1011.7hPa Calm   1.0mph /  1.6km/h 63% 0.00in /  0mm 0.0 W/m2
20:55 70.2 °F /  21.2 °C 57.0 °F /  13.9 °C 29.88in /  1011.7hPa Calm     63% 0.00in /  0mm 0.0 W/m2
21:01 70.2 °F /  21.2 °C 57.4 °F /  14.1 °C 29.89in /  1012.1hPa Calm     64% 0.00in /  0mm 0.0 W/m2
21:07 70.0 °F /  21.1 °C 57.2 °F /  14 °C 29.89in /  1012.1hPa Calm     64% 0.00in /  0mm 0.0 W/m2
21:13 69.8 °F /  21 °C 57.0 °F /  13.9 °C 29.89in /  1012.1hPa Calm   1.0mph /  1.6km/h 64% 0.00in /  0mm 0.0 W/m2
21:20 69.6 °F /  20.9 °C 56.8 °F /  13.8 °C 29.89in /  1012.1hPa Calm     64% 0.00in /  0mm 0.0 W/m2
21:26 69.4 °F /  20.8 °C 57.2 °F /  14 °C 29.89in /  1012.1hPa Calm   1.0mph /  1.6km/h 65% 0.00in /  0mm 0.0 W/m2
21:32 69.3 °F /  20.7 °C 57.0 °F /  13.9 °C 29.89in /  1012.1hPa Calm     65% 0.00in /  0mm 0.0 W/m2
21:38 69.1 °F /  20.6 °C 56.8 °F /  13.8 °C 29.89in /  1012.1hPa East 2.0mph /  3.2km/h 3.0mph /  4.8km/h 65% 0.00in /  0mm 0.0 W/m2
21:44 68.7 °F /  20.4 °C 56.8 °F /  13.8 °C 29.89in /  1012.1hPa Calm     66% 0.00in /  0mm 0.0 W/m2
21:50 68.4 °F /  20.2 °C 56.5 °F /  13.6 °C 29.89in /  1012.1hPa East 2.0mph /  3.2km/h 3.0mph /  4.8km/h 66% 0.00in /  0mm 0.0 W/m2
21:56 68.2 °F /  20.1 °C 56.8 °F /  13.8 °C 29.89in /  1012.1hPa ENE 2.0mph /  3.2km/h 2.0mph /  3.2km/h 67% 0.00in /  0mm 0.0 W/m2
22:02 68.0 °F /  20 °C 56.7 °F /  13.7 °C 29.90in /  1012.4hPa Calm     67% 0.00in /  0mm 0.0 W/m2
22:09 67.8 °F /  19.9 °C 56.8 °F /  13.8 °C 29.90in /  1012.4hPa Calm     68% 0.00in /  0mm 0.0 W/m2
22:15 67.5 °F /  19.7 °C 56.5 °F /  13.6 °C 29.90in /  1012.4hPa Calm   1.0mph /  1.6km/h 68% 0.00in /  0mm 0.0 W/m2
22:21 67.5 °F /  19.7 °C 56.5 °F /  13.6 °C 29.90in /  1012.4hPa Calm   2.0mph /  3.2km/h 68% 0.00in /  0mm 0.0 W/m2
22:27 67.3 °F /  19.6 °C 56.8 °F /  13.8 °C 29.90in /  1012.4hPa ENE 0.9mph /  1.4km/h 2.0mph /  3.2km/h 69% 0.00in /  0mm 0.0 W/m2
22:33 66.9 °F /  19.4 °C 56.5 °F /  13.6 °C 29.90in /  1012.4hPa Calm   2.0mph /  3.2km/h 69% 0.00in /  0mm 0.0 W/m2
22:39 66.7 °F /  19.3 °C 55.8 °F /  13.2 °C 29.91in /  1012.8hPa Calm   1.0mph /  1.6km/h 68% 0.00in /  0mm 0.0 W/m2
22:45 66.6 °F /  19.2 °C 55.6 °F /  13.1 °C 29.90in /  1012.4hPa ENE 2.0mph /  3.2km/h 2.0mph /  3.2km/h 68% 0.00in /  0mm 0.0 W/m2
22:52 66.4 °F /  19.1 °C 55.6 °F /  13.1 °C 29.91in /  1012.8hPa Calm   3.0mph /  4.8km/h 68% 0.00in /  0mm 0.0 W/m2
22:58 66.0 °F /  18.9 °C 55.6 °F /  13.1 °C 29.91in /  1012.8hPa ENE 0.9mph /  1.4km/h 2.0mph /  3.2km/h 69% 0.00in /  0mm 0.0 W/m2
23:04 65.8 °F /  18.8 °C 55.4 °F /  13 °C 29.91in /  1012.8hPa Calm   4.0mph /  6.4km/h 69% 0.00in /  0mm 0.0 W/m2
23:10 65.7 °F /  18.7 °C 55.2 °F /  12.9 °C 29.91in /  1012.8hPa Calm   4.0mph /  6.4km/h 69% 0.00in /  0mm 0.0 W/m2
23:16 65.5 °F /  18.6 °C 54.7 °F /  12.6 °C 29.91in /  1012.8hPa Calm   1.0mph /  1.6km/h 68% 0.00in /  0mm 0.0 W/m2
23:22 65.3 °F /  18.5 °C 54.9 °F /  12.7 °C 29.91in /  1012.8hPa Calm   2.0mph /  3.2km/h 69% 0.00in /  0mm 0.0 W/m2
23:28 65.1 °F /  18.4 °C 54.7 °F /  12.6 °C 29.91in /  1012.8hPa Calm   1.0mph /  1.6km/h 69% 0.00in /  0mm 0.0 W/m2
23:35 64.9 °F /  18.3 °C 54.5 °F /  12.5 °C 29.91in /  1012.8hPa Calm   1.0mph /  1.6km/h 69% 0.00in /  0mm 0.0 W/m2
23:41 64.8 °F /  18.2 °C 54.3 °F /  12.4 °C 29.91in /  1012.8hPa Calm     69% 0.00in /  0mm 0.0 W/m2
23:47 64.8 °F /  18.2 °C 54.0 °F /  12.2 °C 29.91in /  1012.8hPa Calm   3.0mph /  4.8km/h 68% 0.00in /  0mm 0.0 W/m2
23:53 64.8 °F /  18.2 °C 54.0 °F /  12.2 °C 29.91in /  1012.8hPa Calm   2.0mph /  3.2km/h 68% 0.00in /  0mm 0.0 W/m2
23:59 64.8 °F /  18.2 °C 54.0 °F /  12.2 °C 29.91in /  1012.8hPa Calm   2.0mph /  3.2km/h 68% 0.00in /  0mm 0.0 W/m2
Olympia, Windhoek, Namibia
Compliments of Weather Underground - 3 mb